Flight Track Log - Related Links

Times and Time Zones

All times are in EST time to prevent confusion due to time zone crossing. See the N789EX flight status page for this flight to view local times or setup timezone preferences in your user account.

Time Position Orientation Groundspeed Altitude Reporting Facility
EST Latitude Longitude Course Direction KTS MPH feet Rate Location/Type
Fri 06:47:31 PM 47.4010 -119.8540 297° West 391 450 17,800  Level FlightAware ADS-B
Fri 06:48:09 PM 47.4333 -119.9470 297° West 409 471 18,000 174 Climbing FlightAware ADS-B
Fri 06:48:40 PM 47.4603 -120.0250 297° West 407 468 18,000  Level FlightAware ADS-B
Fri 06:49:11 PM 47.4862 -120.1000 297° West 405 466 18,000  Level FlightAware ADS-B
Fri 06:50:12 PM 47.5384 -120.2520 297° West 406 467 18,000  Level FlightAware ADS-B
Fri 06:50:48 PM 47.5683 -120.3400 297° West 407 468 18,000  Level FlightAware ADS-B
Fri 06:51:29 PM 47.6030 -120.4440 296° West 409 471 18,000  Level FlightAware ADS-B
Fri 06:51:53 PM 47.6196 -120.5050 292° West 410 472 18,000  Level FlightAware ADS-B
Fri 06:52:23 PM 47.6382 -120.5850 289° West 410 472 18,000  Level FlightAware ADS-B
Fri 06:52:53 PM 47.6564 -120.6650 289° West 410 472 18,000  Level FlightAware ADS-B
Fri 06:53:23 PM 47.6746 -120.7460 288° West 410 472 18,000  Level FlightAware ADS-B
Fri 06:53:53 PM 47.6927 -120.8260 289° West 410 472 18,000  Level FlightAware ADS-B
Fri 06:54:24 PM 47.7108 -120.9060 289° West 410 472 18,000  Level FlightAware ADS-B
Fri 06:54:54 PM 47.7289 -120.9870 288° West 410 472 18,000 -300 Level FlightAware ADS-B
Fri 06:55:24 PM 47.7469 -121.0670 289° West 404 465 17,700 -1,600 Descending FlightAware ADS-B
Fri 06:55:54 PM 47.7641 -121.1450 288° West 392 451 16,400 -2,852 Descending FlightAware ADS-B
Fri 06:56:25 PM 47.7812 -121.2220 288° West 391 450 14,800 -2,903 Descending FlightAware ADS-B
Fri 06:56:56 PM 47.7986 -121.3010 288° West 384 442 13,400 -2,852 Descending FlightAware ADS-B
Fri 06:57:26 PM 47.8153 -121.3770 288° West 380 437 11,900 -2,644 Descending FlightAware ADS-B
Fri 06:57:55 PM 47.8307 -121.4470 288° West 376 433 10,800 -1,220 Descending FlightAware ADS-B
Fri 06:58:25 PM 47.8465 -121.5200 288° West 350 403 10,700 -98 Descending FlightAware ADS-B
Fri 06:58:56 PM 47.8607 -121.5850 288° West 311 358 10,700  Level FlightAware ADS-B
Fri 06:59:26 PM 47.8733 -121.6430 288° West 285 328 10,700  Level FlightAware ADS-B
Fri 06:59:33 PM 47.8760 -121.6560 287° West 283 326 10,700  Level FlightAware ADS-B
Fri 06:59:36 PM 47.8773 -121.6630 285° West 282 325 10,700  Level FlightAware ADS-B
Fri 06:59:41 PM 47.8781 -121.6730 277° West 284 327 10,700  Level FlightAware ADS-B
Fri 06:59:44 PM 47.8781 -121.6790 270° West 285 328 10,700  Level FlightAware ADS-B
Fri 06:59:49 PM 47.8778 -121.6870 267° West 286 329 10,700  Level FlightAware ADS-B
Fri 06:59:55 PM 47.8762 -121.6990 259° West 287 330 10,700  Level FlightAware ADS-B
Fri 06:59:58 PM 47.8749 -121.7060 255° West 289 333 10,700 -857 Level FlightAware ADS-B
Fri 07:00:02 PM 47.8731 -121.7130 249° West 291 335 10,600 -1,333 Descending FlightAware ADS-B
Fri 07:00:07 PM 47.8699 -121.7220 242° Southwest 292 336 10,500 -1,412 Descending FlightAware ADS-B
Fri 07:00:19 PM 47.8622 -121.7420 240° Southwest 293 337 10,200 -1,765 Descending FlightAware ADS-B
Fri 07:00:24 PM 47.8591 -121.7520 245° Southwest 292 336 10,000 -1,500 Descending FlightAware ADS-B
Fri 07:00:31 PM 47.8559 -121.7640 248° West 290 334 9,900 -1,429 Descending FlightAware ADS-B
Fri 07:00:45 PM 47.8499 -121.7910 252° West 288 331 9,500 -1,579 Descending FlightAware ADS-B
Fri 07:00:50 PM 47.8486 -121.7974 253° West 289 333 9,400 -1,600 Descending FlightAware ADS-B
Fri 07:01:00 PM 47.8440 -121.8200 253° West 289 333 9,100 -1,565 Descending FlightAware ADS-B
Fri 07:01:13 PM 47.8395 -121.8440 254° West 289 333 8,800 -1,500 Descending FlightAware ADS-B
Fri 07:01:28 PM 47.8340 -121.8730 254° West 288 331 8,400 -1,400 Descending FlightAware ADS-B
Fri 07:01:43 PM 47.8288 -121.9010 255° West 287 330 8,100 -1,400 Descending FlightAware ADS-B
Fri 07:01:58 PM 47.8237 -121.9290 255° West 285 328 7,700 -1,600 Descending FlightAware ADS-B
Fri 07:02:13 PM 47.8185 -121.9580 255° West 285 328 7,300 -1,548 Descending FlightAware ADS-B
Fri 07:02:29 PM 47.8131 -121.9880 255° West 285 328 6,900 -1,355 Descending FlightAware ADS-B
Fri 07:02:44 PM 47.8078 -122.0170 255° West 282 325 6,600 -1,286 Descending FlightAware ADS-B
Fri 07:02:57 PM 47.8035 -122.0410 255° West 279 321 6,300 -1,286 Descending FlightAware ADS-B
Fri 07:03:12 PM 47.7985 -122.0690 255° West 276 318 6,000 -1,161 Descending FlightAware ADS-B
Fri 07:03:28 PM 47.7934 -122.0970 255° West 274 315 5,700 -1,448 Descending FlightAware ADS-B
Fri 07:03:41 PM 47.7888 -122.1220 255° West 274 315 5,300 -1,600 Descending FlightAware ADS-B
Fri 07:03:43 PM 47.7895 -122.1181 75° East 275 316 5,300 -1,125 Level FlightAware ADS-B
Fri 07:03:57 PM 47.7837 -122.1500 255° West 273 314 5,000 -1,448 Descending FlightAware ADS-B
Fri 07:04:12 PM 47.7787 -122.1780 255° West 269 310 4,600 -1,000 Descending FlightAware ADS-B
Fri 07:04:27 PM 47.7743 -122.2030 255° West 261 300 4,500 -600 Descending FlightAware ADS-B
Fri 07:04:42 PM 47.7697 -122.2290 255° West 252 290 4,300 -621 Descending FlightAware ADS-B
Fri 07:04:56 PM 47.7658 -122.2520 256° West 243 280 4,200 -828 Descending FlightAware ADS-B
Fri 07:05:11 PM 47.7615 -122.2760 255° West 233 268 3,900 -923 Descending FlightAware ADS-B
Fri 07:05:22 PM 47.7585 -122.2930 255° West 229 264 3,800 -800 Descending FlightAware ADS-B
Fri 07:05:26 PM 47.7573 -122.2980 250° West 226 260 3,700 -750 Descending FlightAware ADS-B
Fri 07:05:30 PM 47.7556 -122.3040 247° West 224 258 3,700 -667 Level FlightAware ADS-B
Fri 07:05:35 PM 47.7532 -122.3100 239° Southwest 220 253 3,600 -600 Descending FlightAware ADS-B
Fri 07:05:40 PM 47.7507 -122.3170 242° Southwest 217 250 3,600 -286 Level FlightAware ADS-B
Fri 07:05:56 PM 47.7424 -122.3360 237° Southwest 203 234 3,500 -581 Descending FlightAware ADS-B
Fri 07:06:11 PM 47.7347 -122.3530 236° Southwest 191 220 3,300 -720 Descending FlightAware ADS-B
Fri 07:06:21 PM 47.7300 -122.3640 238° Southwest 184 212 3,200 -1,000 Descending FlightAware ADS-B
Fri 07:06:29 PM 47.7258 -122.3730 235° Southwest 179 206 3,000 -900 Descending FlightAware ADS-B
Fri 07:06:41 PM 47.7203 -122.3850 236° Southwest 174 200 2,900 -818 Descending FlightAware ADS-B
Fri 07:06:51 PM 47.7160 -122.3940 235° Southwest 173 199 2,700 -1,200 Descending FlightAware ADS-B
Fri 07:06:56 PM 47.7136 -122.3990 234° Southwest 172 198 2,600 -1,200 Descending FlightAware ADS-B
Fri 07:07:06 PM 47.7076 -122.4060 218° Southwest 173 199 2,400 -1,200 Descending FlightAware ADS-B
Fri 07:07:16 PM 47.6999 -122.4080 190° South 167 192 2,200 -1,333 Descending FlightAware ADS-B
Fri 07:07:24 PM 47.6938 -122.4070 174° South 164 189 2,000 -750 Descending FlightAware ADS-B
Fri 07:07:40 PM 47.6816 -122.4040 171° South 166 191 1,900 -250 Descending FlightAware ADS-B
Fri 07:07:48 PM 47.6760 -122.4020 166° South 166 191 1,900  Level FlightAware ADS-B
Fri 07:07:51 PM 47.6734 -122.4020 180° South 167 192 1,900  Level FlightAware ADS-B
Fri 07:07:57 PM 47.6691 -122.4010 171° South 168 193 1,900  Level FlightAware ADS-B
Fri 07:08:15 PM 47.6549 -122.4010 180° South 170 196 1,900  Level FlightAware ADS-B
Fri 07:08:20 PM 47.6507 -122.4010 180° South 169 194 1,900  Level FlightAware ADS-B
Fri 07:08:23 PM 47.6481 -122.4000 165° South 168 193 1,900  Level FlightAware ADS-B
Fri 07:08:28 PM 47.6444 -122.3990 170° South 166 191 1,900  Level FlightAware ADS-B
Fri 07:08:33 PM 47.6415 -122.3970 155° Southeast 166 191 1,900  Level FlightAware ADS-B
Fri 07:08:41 PM 47.6359 -122.3920 149° Southeast 166 191 1,900 -353 Level FlightAware ADS-B
Fri 07:08:50 PM 47.6300 -122.3870 150° Southeast 162 186 1,800 -667 Descending FlightAware ADS-B
Fri 07:08:59 PM 47.6239 -122.3820 151° Southeast 157 181 1,700 -783 Descending FlightAware ADS-B
Fri 07:09:13 PM 47.6154 -122.3750 151° Southeast 160 184 1,500 -828 Descending FlightAware ADS-B
Fri 07:09:28 PM 47.6057 -122.3660 148° Southeast 155 178 1,300 -800 Descending FlightAware ADS-B
Fri 07:09:43 PM 47.5966 -122.3590 153° Southeast 151 174 1,100 -800 Descending FlightAware ADS-B
Fri 07:09:58 PM 47.5878 -122.3510 148° Southeast 150 173 900 -400 Descending FlightAware ADS-B
Fri 07:10:28 PM 47.5708 -122.3372 148° Southeast 150 173 800 -623 Descending Seattle Center
Fri 07:11:15 PM 47.5419 -122.3128 150° Southeast 149 171 100 -389 Descending Seattle Center
Fri 07:12:16 PM 47.5117 -122.2858 149° Southeast 147 169 100  Level Seattle Center

Login

Don't have an account? Register now (free) for customized features, flight alerts, and more!